sensor_id;sensor_type;location;lat;lon;timestamp;temperature;humidity
13052;DHT22;6592;47.484;9.726;2022-10-17T00:01:18;14.40;99.90
13052;DHT22;6592;47.484;9.726;2022-10-17T00:03:48;14.30;99.90
13052;DHT22;6592;47.484;9.726;2022-10-17T00:06:16;14.20;99.90
13052;DHT22;6592;47.484;9.726;2022-10-17T00:08:45;14.20;99.90
13052;DHT22;6592;47.484;9.726;2022-10-17T00:11:15;14.10;99.90
13052;DHT22;6592;47.484;9.726;2022-10-17T00:13:45;14.20;99.90
13052;DHT22;6592;47.484;9.726;2022-10-17T00:16:15;14.20;99.90
13052;DHT22;6592;47.484;9.726;2022-10-17T00:18:43;14.10;99.90
13052;DHT22;6592;47.484;9.726;2022-10-17T00:21:17;14.10;99.90
13052;DHT22;6592;47.484;9.726;2022-10-17T00:23:48;14.10;99.90
13052;DHT22;6592;47.484;9.726;2022-10-17T00:26:17;14.00;99.90
13052;DHT22;6592;47.484;9.726;2022-10-17T00:28:47;13.90;99.90
13052;DHT22;6592;47.484;9.726;2022-10-17T00:31:17;14.00;99.90
13052;DHT22;6592;47.484;9.726;2022-10-17T00:33:46;13.90;99.90
13052;DHT22;6592;47.484;9.726;2022-10-17T00:36:18;13.90;99.90
13052;DHT22;6592;47.484;9.726;2022-10-17T00:38:48;13.90;99.90
13052;DHT22;6592;47.484;9.726;2022-10-17T00:41:20;13.90;99.90
13052;DHT22;6592;47.484;9.726;2022-10-17T00:43:54;13.90;99.90
13052;DHT22;6592;47.484;9.726;2022-10-17T00:46:25;13.80;99.90
13052;DHT22;6592;47.484;9.726;2022-10-17T00:48:55;13.80;99.90
13052;DHT22;6592;47.484;9.726;2022-10-17T00:51:29;13.80;99.90
13052;DHT22;6592;47.484;9.726;2022-10-17T00:54:01;13.80;99.90
13052;DHT22;6592;47.484;9.726;2022-10-17T00:56:31;14.00;99.90
13052;DHT22;6592;47.484;9.726;2022-10-17T00:58:59;13.80;99.90
13052;DHT22;6592;47.484;9.726;2022-10-17T01:01:28;13.80;99.90
13052;DHT22;6592;47.484;9.726;2022-10-17T01:03:57;13.80;99.90
13052;DHT22;6592;47.484;9.726;2022-10-17T01:06:27;13.80;99.90
13052;DHT22;6592;47.484;9.726;2022-10-17T01:08:55;13.70;99.90
13052;DHT22;6592;47.484;9.726;2022-10-17T01:11:32;13.70;99.90
13052;DHT22;6592;47.484;9.726;2022-10-17T01:14:07;13.70;99.90
13052;DHT22;6592;47.484;9.726;2022-10-17T01:16:42;13.70;99.90
13052;DHT22;6592;47.484;9.726;2022-10-17T01:19:34;13.70;99.90
13052;DHT22;6592;47.484;9.726;2022-10-17T01:22:09;13.70;99.90
13052;DHT22;6592;47.484;9.726;2022-10-17T01:25:16;13.70;99.90
13052;DHT22;6592;47.484;9.726;2022-10-17T01:28:15;13.60;99.90
13052;DHT22;6592;47.484;9.726;2022-10-17T01:31:03;13.70;99.90
13052;DHT22;6592;47.484;9.726;2022-10-17T01:33:46;13.70;99.90
13052;DHT22;6592;47.484;9.726;2022-10-17T01:36:26;13.70;99.90
13052;DHT22;6592;47.484;9.726;2022-10-17T01:39:02;13.80;99.90
13052;DHT22;6592;47.484;9.726;2022-10-17T01:41:40;13.80;99.90
13052;DHT22;6592;47.484;9.726;2022-10-17T01:44:14;13.90;99.90
13052;DHT22;6592;47.484;9.726;2022-10-17T01:46:49;14.00;99.90
13052;DHT22;6592;47.484;9.726;2022-10-17T01:49:21;14.00;99.90
13052;DHT22;6592;47.484;9.726;2022-10-17T01:51:56;14.10;99.90
13052;DHT22;6592;47.484;9.726;2022-10-17T01:54:31;14.00;99.90
13052;DHT22;6592;47.484;9.726;2022-10-17T01:57:04;13.90;99.90
13052;DHT22;6592;47.484;9.726;2022-10-17T01:59:39;13.80;99.90
13052;DHT22;6592;47.484;9.726;2022-10-17T02:02:11;13.70;99.90
13052;DHT22;6592;47.484;9.726;2022-10-17T02:04:41;13.60;99.90
13052;DHT22;6592;47.484;9.726;2022-10-17T02:07:11;13.50;99.90
13052;DHT22;6592;47.484;9.726;2022-10-17T02:09:40;13.40;99.90
13052;DHT22;6592;47.484;9.726;2022-10-17T02:12:28;13.30;99.90
13052;DHT22;6592;47.484;9.726;2022-10-17T02:15:21;13.30;99.90
13052;DHT22;6592;47.484;9.726;2022-10-17T02:18:01;13.30;99.90
13052;DHT22;6592;47.484;9.726;2022-10-17T02:20:38;13.30;99.90
13052;DHT22;6592;47.484;9.726;2022-10-17T02:23:11;13.30;99.90
13052;DHT22;6592;47.484;9.726;2022-10-17T02:25:46;13.20;99.90
13052;DHT22;6592;47.484;9.726;2022-10-17T02:28:19;13.20;99.90
13052;DHT22;6592;47.484;9.726;2022-10-17T02:30:50;13.20;99.90
13052;DHT22;6592;47.484;9.726;2022-10-17T02:33:26;13.20;99.90
13052;DHT22;6592;47.484;9.726;2022-10-17T02:35:59;13.20;99.90
13052;DHT22;6592;47.484;9.726;2022-10-17T02:38:29;13.20;99.90
13052;DHT22;6592;47.484;9.726;2022-10-17T02:41:00;13.20;99.90
13052;DHT22;6592;47.484;9.726;2022-10-17T02:43:28;13.20;99.90
13052;DHT22;6592;47.484;9.726;2022-10-17T02:45:57;13.10;99.90
13052;DHT22;6592;47.484;9.726;2022-10-17T02:48:29;13.00;99.90
13052;DHT22;6592;47.484;9.726;2022-10-17T02:51:06;13.00;99.90
13052;DHT22;6592;47.484;9.726;2022-10-17T02:53:39;13.00;99.90
13052;DHT22;6592;47.484;9.726;2022-10-17T02:56:16;13.00;99.90
13052;DHT22;6592;47.484;9.726;2022-10-17T02:58:49;13.00;99.90
13052;DHT22;6592;47.484;9.726;2022-10-17T03:01:19;13.00;99.90
13052;DHT22;6592;47.484;9.726;2022-10-17T03:03:49;13.00;99.90
13052;DHT22;6592;47.484;9.726;2022-10-17T03:06:17;12.90;99.90
13052;DHT22;6592;47.484;9.726;2022-10-17T03:08:45;12.90;99.90
13052;DHT22;6592;47.484;9.726;2022-10-17T03:11:14;12.90;99.90
13052;DHT22;6592;47.484;9.726;2022-10-17T03:13:42;12.80;99.90
13052;DHT22;6592;47.484;9.726;2022-10-17T03:16:10;12.80;99.90
13052;DHT22;6592;47.484;9.726;2022-10-17T03:18:39;12.70;99.90
13052;DHT22;6592;47.484;9.726;2022-10-17T03:21:13;12.70;99.90
13052;DHT22;6592;47.484;9.726;2022-10-17T03:23:41;12.60;99.90
13052;DHT22;6592;47.484;9.726;2022-10-17T03:26:10;12.60;99.90
13052;DHT22;6592;47.484;9.726;2022-10-17T03:28:39;12.60;99.90
13052;DHT22;6592;47.484;9.726;2022-10-17T03:31:08;12.50;99.90
13052;DHT22;6592;47.484;9.726;2022-10-17T03:33:38;12.50;99.90
13052;DHT22;6592;47.484;9.726;2022-10-17T03:36:07;12.50;99.90
13052;DHT22;6592;47.484;9.726;2022-10-17T03:38:38;12.50;99.90
13052;DHT22;6592;47.484;9.726;2022-10-17T03:41:07;12.60;99.90
13052;DHT22;6592;47.484;9.726;2022-10-17T03:43:35;12.50;99.90
13052;DHT22;6592;47.484;9.726;2022-10-17T03:46:06;12.60;99.90
13052;DHT22;6592;47.484;9.726;2022-10-17T03:48:34;12.60;99.90
13052;DHT22;6592;47.484;9.726;2022-10-17T03:51:04;12.50;99.90
13052;DHT22;6592;47.484;9.726;2022-10-17T03:53:33;12.50;99.90
13052;DHT22;6592;47.484;9.726;2022-10-17T03:56:11;12.60;99.90
13052;DHT22;6592;47.484;9.726;2022-10-17T03:58:40;12.60;99.90
13052;DHT22;6592;47.484;9.726;2022-10-17T04:01:10;12.60;99.90
13052;DHT22;6592;47.484;9.726;2022-10-17T04:03:39;12.60;99.90
13052;DHT22;6592;47.484;9.726;2022-10-17T04:06:10;12.60;99.90
13052;DHT22;6592;47.484;9.726;2022-10-17T04:08:39;12.60;99.90
13052;DHT22;6592;47.484;9.726;2022-10-17T04:11:12;12.60;99.90
13052;DHT22;6592;47.484;9.726;2022-10-17T04:13:40;12.60;99.90
13052;DHT22;6592;47.484;9.726;2022-10-17T04:16:11;12.60;99.90
13052;DHT22;6592;47.484;9.726;2022-10-17T04:18:40;12.60;99.90
13052;DHT22;6592;47.484;9.726;2022-10-17T04:21:09;12.50;99.90
13052;DHT22;6592;47.484;9.726;2022-10-17T04:23:38;12.50;99.90
13052;DHT22;6592;47.484;9.726;2022-10-17T04:26:06;12.40;99.90
13052;DHT22;6592;47.484;9.726;2022-10-17T04:28:36;12.40;99.90
13052;DHT22;6592;47.484;9.726;2022-10-17T04:31:12;12.30;99.90
13052;DHT22;6592;47.484;9.726;2022-10-17T04:33:41;12.30;99.90
13052;DHT22;6592;47.484;9.726;2022-10-17T04:36:11;12.20;99.90
13052;DHT22;6592;47.484;9.726;2022-10-17T04:38:40;12.10;99.90
13052;DHT22;6592;47.484;9.726;2022-10-17T04:41:10;12.00;99.90
13052;DHT22;6592;47.484;9.726;2022-10-17T04:43:40;12.00;99.90
13052;DHT22;6592;47.484;9.726;2022-10-17T04:46:14;12.00;99.90
13052;DHT22;6592;47.484;9.726;2022-10-17T04:48:42;11.90;99.90
13052;DHT22;6592;47.484;9.726;2022-10-17T04:51:13;11.90;99.90
13052;DHT22;6592;47.484;9.726;2022-10-17T04:53:42;11.80;99.90
13052;DHT22;6592;47.484;9.726;2022-10-17T04:56:12;11.80;99.90
13052;DHT22;6592;47.484;9.726;2022-10-17T04:58:43;11.80;99.90
13052;DHT22;6592;47.484;9.726;2022-10-17T05:01:14;11.70;99.90
13052;DHT22;6592;47.484;9.726;2022-10-17T05:03:43;11.70;99.90
13052;DHT22;6592;47.484;9.726;2022-10-17T05:06:13;11.70;99.90
13052;DHT22;6592;47.484;9.726;2022-10-17T05:08:42;11.70;99.90
13052;DHT22;6592;47.484;9.726;2022-10-17T05:11:16;11.70;99.90
13052;DHT22;6592;47.484;9.726;2022-10-17T05:13:50;11.60;99.90
13052;DHT22;6592;47.484;9.726;2022-10-17T05:16:19;11.60;99.90
13052;DHT22;6592;47.484;9.726;2022-10-17T05:18:48;11.60;99.90
13052;DHT22;6592;47.484;9.726;2022-10-17T05:21:20;11.60;99.90
13052;DHT22;6592;47.484;9.726;2022-10-17T05:23:49;11.50;99.90
13052;DHT22;6592;47.484;9.726;2022-10-17T05:26:18;11.50;99.90
13052;DHT22;6592;47.484;9.726;2022-10-17T05:28:46;11.50;99.90
13052;DHT22;6592;47.484;9.726;2022-10-17T05:31:16;11.50;99.90
13052;DHT22;6592;47.484;9.726;2022-10-17T05:33:44;11.50;99.90
13052;DHT22;6592;47.484;9.726;2022-10-17T05:36:13;11.50;99.90
13052;DHT22;6592;47.484;9.726;2022-10-17T05:38:41;11.50;99.90
13052;DHT22;6592;47.484;9.726;2022-10-17T05:41:10;11.60;99.90
13052;DHT22;6592;47.484;9.726;2022-10-17T05:43:38;11.60;99.90
13052;DHT22;6592;47.484;9.726;2022-10-17T05:46:06;11.60;99.90
13052;DHT22;6592;47.484;9.726;2022-10-17T05:48:36;11.70;99.90
13052;DHT22;6592;47.484;9.726;2022-10-17T05:51:07;11.70;99.90
13052;DHT22;6592;47.484;9.726;2022-10-17T05:53:37;11.70;99.90
13052;DHT22;6592;47.484;9.726;2022-10-17T05:56:08;11.70;99.90
13052;DHT22;6592;47.484;9.726;2022-10-17T05:58:39;11.70;99.90
13052;DHT22;6592;47.484;9.726;2022-10-17T06:01:17;11.70;99.90
13052;DHT22;6592;47.484;9.726;2022-10-17T06:03:47;11.70;99.90
13052;DHT22;6592;47.484;9.726;2022-10-17T06:06:16;11.70;99.90
13052;DHT22;6592;47.484;9.726;2022-10-17T06:08:44;11.70;99.90
13052;DHT22;6592;47.484;9.726;2022-10-17T06:11:13;11.70;99.90
13052;DHT22;6592;47.484;9.726;2022-10-17T06:13:41;11.80;99.90
13052;DHT22;6592;47.484;9.726;2022-10-17T06:16:09;11.80;99.90
13052;DHT22;6592;47.484;9.726;2022-10-17T06:18:37;11.80;99.90
13052;DHT22;6592;47.484;9.726;2022-10-17T06:21:09;11.90;99.90
13052;DHT22;6592;47.484;9.726;2022-10-17T06:23:38;12.00;99.90
13052;DHT22;6592;47.484;9.726;2022-10-17T06:26:07;12.10;99.90
13052;DHT22;6592;47.484;9.726;2022-10-17T06:28:35;12.20;99.90
13052;DHT22;6592;47.484;9.726;2022-10-17T06:31:05;12.40;99.90
13052;DHT22;6592;47.484;9.726;2022-10-17T06:33:34;12.50;99.90
13052;DHT22;6592;47.484;9.726;2022-10-17T06:36:03;12.70;99.90
13052;DHT22;6592;47.484;9.726;2022-10-17T06:38:34;13.00;99.90
13052;DHT22;6592;47.484;9.726;2022-10-17T06:41:03;13.60;99.90
13052;DHT22;6592;47.484;9.726;2022-10-17T06:43:34;14.80;99.90
13052;DHT22;6592;47.484;9.726;2022-10-17T06:46:03;16.00;99.90
13052;DHT22;6592;47.484;9.726;2022-10-17T06:48:31;17.20;99.90
13052;DHT22;6592;47.484;9.726;2022-10-17T06:51:00;18.10;99.90
13052;DHT22;6592;47.484;9.726;2022-10-17T06:53:29;18.60;99.90
13052;DHT22;6592;47.484;9.726;2022-10-17T06:55:59;19.20;99.90
13052;DHT22;6592;47.484;9.726;2022-10-17T06:58:30;19.80;99.90
13052;DHT22;6592;47.484;9.726;2022-10-17T07:00:58;20.50;99.90
13052;DHT22;6592;47.484;9.726;2022-10-17T07:03:27;21.00;99.90
13052;DHT22;6592;47.484;9.726;2022-10-17T07:05:56;21.50;99.90
13052;DHT22;6592;47.484;9.726;2022-10-17T07:08:25;22.30;99.90
13052;DHT22;6592;47.484;9.726;2022-10-17T07:10:54;23.10;99.90
13052;DHT22;6592;47.484;9.726;2022-10-17T07:13:23;23.60;99.90
13052;DHT22;6592;47.484;9.726;2022-10-17T07:15:52;24.00;99.90
13052;DHT22;6592;47.484;9.726;2022-10-17T07:18:24;24.50;99.90
13052;DHT22;6592;47.484;9.726;2022-10-17T07:20:52;25.00;99.90
13052;DHT22;6592;47.484;9.726;2022-10-17T07:23:21;25.30;99.90
13052;DHT22;6592;47.484;9.726;2022-10-17T07:25:50;25.70;99.90
13052;DHT22;6592;47.484;9.726;2022-10-17T07:28:18;25.90;99.30
13052;DHT22;6592;47.484;9.726;2022-10-17T07:30:48;26.10;97.80
13052;DHT22;6592;47.484;9.726;2022-10-17T07:33:20;26.60;96.00
13052;DHT22;6592;47.484;9.726;2022-10-17T07:35:48;27.00;95.20
13052;DHT22;6592;47.484;9.726;2022-10-17T07:38:18;27.60;93.30
13052;DHT22;6592;47.484;9.726;2022-10-17T07:40:53;28.10;90.80
13052;DHT22;6592;47.484;9.726;2022-10-17T07:43:21;28.10;90.20
13052;DHT22;6592;47.484;9.726;2022-10-17T07:45:52;28.20;85.50
13052;DHT22;6592;47.484;9.726;2022-10-17T07:48:21;28.10;86.20
13052;DHT22;6592;47.484;9.726;2022-10-17T07:50:50;28.20;84.20
13052;DHT22;6592;47.484;9.726;2022-10-17T07:53:18;28.20;82.80
13052;DHT22;6592;47.484;9.726;2022-10-17T07:55:47;28.50;82.80
13052;DHT22;6592;47.484;9.726;2022-10-17T07:58:15;28.70;79.70
13052;DHT22;6592;47.484;9.726;2022-10-17T08:00:44;29.20;78.80
13052;DHT22;6592;47.484;9.726;2022-10-17T08:03:16;29.10;77.90
13052;DHT22;6592;47.484;9.726;2022-10-17T08:05:44;29.60;76.10
13052;DHT22;6592;47.484;9.726;2022-10-17T08:08:12;30.40;73.90
13052;DHT22;6592;47.484;9.726;2022-10-17T08:10:40;31.00;72.50
13052;DHT22;6592;47.484;9.726;2022-10-17T08:13:09;31.70;70.50
13052;DHT22;6592;47.484;9.726;2022-10-17T08:15:37;32.80;69.40
13052;DHT22;6592;47.484;9.726;2022-10-17T08:18:05;33.60;69.10
13052;DHT22;6592;47.484;9.726;2022-10-17T08:20:36;34.00;68.20
13052;DHT22;6592;47.484;9.726;2022-10-17T08:23:04;34.10;66.70
13052;DHT22;6592;47.484;9.726;2022-10-17T08:25:32;34.10;66.10
13052;DHT22;6592;47.484;9.726;2022-10-17T08:28:00;34.30;64.80
13052;DHT22;6592;47.484;9.726;2022-10-17T08:30:29;34.40;63.70
13052;DHT22;6592;47.484;9.726;2022-10-17T08:32:57;34.80;61.30
13052;DHT22;6592;47.484;9.726;2022-10-17T08:35:25;34.90;61.60
13052;DHT22;6592;47.484;9.726;2022-10-17T08:37:57;34.70;60.70
13052;DHT22;6592;47.484;9.726;2022-10-17T08:40:30;35.60;60.80
13052;DHT22;6592;47.484;9.726;2022-10-17T08:43:25;35.90;59.30
13052;DHT22;6592;47.484;9.726;2022-10-17T08:46:02;36.70;57.10
13052;DHT22;6592;47.484;9.726;2022-10-17T08:48:35;37.40;57.10
13052;DHT22;6592;47.484;9.726;2022-10-17T08:51:14;38.10;56.00
13052;DHT22;6592;47.484;9.726;2022-10-17T08:53:48;37.80;54.20
13052;DHT22;6592;47.484;9.726;2022-10-17T08:56:19;38.10;55.30
13052;DHT22;6592;47.484;9.726;2022-10-17T08:59:10;38.40;53.50
13052;DHT22;6592;47.484;9.726;2022-10-17T09:01:51;39.10;53.00
13052;DHT22;6592;47.484;9.726;2022-10-17T09:04:46;39.00;53.20
13052;DHT22;6592;47.484;9.726;2022-10-17T09:07:23;39.10;51.90
13052;DHT22;6592;47.484;9.726;2022-10-17T09:10:00;39.00;52.10
13052;DHT22;6592;47.484;9.726;2022-10-17T09:12:36;39.10;51.20
13052;DHT22;6592;47.484;9.726;2022-10-17T09:15:28;38.60;51.30
13052;DHT22;6592;47.484;9.726;2022-10-17T09:18:01;38.60;51.30
13052;DHT22;6592;47.484;9.726;2022-10-17T09:20:31;38.80;52.50
13052;DHT22;6592;47.484;9.726;2022-10-17T09:23:04;38.80;51.20
13052;DHT22;6592;47.484;9.726;2022-10-17T09:25:41;38.70;51.10
13052;DHT22;6592;47.484;9.726;2022-10-17T09:28:14;38.60;51.10
13052;DHT22;6592;47.484;9.726;2022-10-17T09:30:45;38.20;51.10
13052;DHT22;6592;47.484;9.726;2022-10-17T09:33:16;38.20;51.30
13052;DHT22;6592;47.484;9.726;2022-10-17T09:36:02;38.30;51.80
13052;DHT22;6592;47.484;9.726;2022-10-17T09:38:37;37.90;52.50
13052;DHT22;6592;47.484;9.726;2022-10-17T09:41:17;38.10;51.90
13052;DHT22;6592;47.484;9.726;2022-10-17T09:44:15;38.60;50.80
13052;DHT22;6592;47.484;9.726;2022-10-17T09:47:01;39.00;51.30
13052;DHT22;6592;47.484;9.726;2022-10-17T09:49:34;38.60;50.50
13052;DHT22;6592;47.484;9.726;2022-10-17T09:52:11;38.20;51.20
13052;DHT22;6592;47.484;9.726;2022-10-17T09:54:44;37.80;52.00
13052;DHT22;6592;47.484;9.726;2022-10-17T09:57:15;38.10;52.30
13052;DHT22;6592;47.484;9.726;2022-10-17T09:59:46;38.40;51.40
13052;DHT22;6592;47.484;9.726;2022-10-17T10:02:16;39.00;50.90
13052;DHT22;6592;47.484;9.726;2022-10-17T10:04:59;39.20;51.10
13052;DHT22;6592;47.484;9.726;2022-10-17T10:07:33;39.60;50.20
13052;DHT22;6592;47.484;9.726;2022-10-17T10:10:04;39.60;50.80
13052;DHT22;6592;47.484;9.726;2022-10-17T10:12:37;39.20;49.90
13052;DHT22;6592;47.484;9.726;2022-10-17T10:15:29;39.00;51.10
13052;DHT22;6592;47.484;9.726;2022-10-17T10:17:59;39.60;50.50
13052;DHT22;6592;47.484;9.726;2022-10-17T10:20:31;39.70;50.00
13052;DHT22;6592;47.484;9.726;2022-10-17T10:23:16;40.20;49.90
13052;DHT22;6592;47.484;9.726;2022-10-17T10:25:55;40.60;49.40
13052;DHT22;6592;47.484;9.726;2022-10-17T10:28:28;40.80;48.60
13052;DHT22;6592;47.484;9.726;2022-10-17T10:30:59;40.60;47.40
13052;DHT22;6592;47.484;9.726;2022-10-17T10:33:29;40.70;48.00
13052;DHT22;6592;47.484;9.726;2022-10-17T10:36:00;40.40;47.40
13052;DHT22;6592;47.484;9.726;2022-10-17T10:38:29;39.90;48.40
13052;DHT22;6592;47.484;9.726;2022-10-17T10:41:01;40.40;47.70
13052;DHT22;6592;47.484;9.726;2022-10-17T10:43:34;40.80;47.90
13052;DHT22;6592;47.484;9.726;2022-10-17T10:46:05;41.10;47.80
13052;DHT22;6592;47.484;9.726;2022-10-17T10:48:49;41.00;46.90
13052;DHT22;6592;47.484;9.726;2022-10-17T10:51:22;41.20;47.60
13052;DHT22;6592;47.484;9.726;2022-10-17T10:53:58;41.20;46.50
13052;DHT22;6592;47.484;9.726;2022-10-17T10:56:33;40.90;46.30
13052;DHT22;6592;47.484;9.726;2022-10-17T10:59:08;40.60;47.00
13052;DHT22;6592;47.484;9.726;2022-10-17T11:01:42;40.40;46.80
13052;DHT22;6592;47.484;9.726;2022-10-17T11:04:19;40.50;45.90
13052;DHT22;6592;47.484;9.726;2022-10-17T11:06:51;40.70;45.80
13052;DHT22;6592;47.484;9.726;2022-10-17T11:09:28;40.90;45.80
13052;DHT22;6592;47.484;9.726;2022-10-17T11:12:04;41.00;43.50
13052;DHT22;6592;47.484;9.726;2022-10-17T11:14:43;40.90;43.00
13052;DHT22;6592;47.484;9.726;2022-10-17T11:17:20;40.10;43.80
13052;DHT22;6592;47.484;9.726;2022-10-17T11:19:59;40.00;44.50
13052;DHT22;6592;47.484;9.726;2022-10-17T11:22:32;39.60;44.10
13052;DHT22;6592;47.484;9.726;2022-10-17T11:25:05;39.70;45.60
13052;DHT22;6592;47.484;9.726;2022-10-17T11:27:41;39.70;46.10
13052;DHT22;6592;47.484;9.726;2022-10-17T11:30:13;39.70;44.70
13052;DHT22;6592;47.484;9.726;2022-10-17T11:32:44;39.20;46.10
13052;DHT22;6592;47.484;9.726;2022-10-17T11:35:19;39.70;46.60
13052;DHT22;6592;47.484;9.726;2022-10-17T11:37:52;39.40;45.90
13052;DHT22;6592;47.484;9.726;2022-10-17T11:40:28;39.70;46.30
13052;DHT22;6592;47.484;9.726;2022-10-17T11:42:59;40.10;46.00
13052;DHT22;6592;47.484;9.726;2022-10-17T11:45:34;39.90;45.90
13052;DHT22;6592;47.484;9.726;2022-10-17T11:48:11;40.10;45.80
13052;DHT22;6592;47.484;9.726;2022-10-17T11:50:44;40.10;45.60
13052;DHT22;6592;47.484;9.726;2022-10-17T11:53:44;40.00;44.70
13052;DHT22;6592;47.484;9.726;2022-10-17T11:56:18;40.10;45.90
13052;DHT22;6592;47.484;9.726;2022-10-17T11:58:53;40.10;45.50
13052;DHT22;6592;47.484;9.726;2022-10-17T12:01:32;39.50;46.20
13052;DHT22;6592;47.484;9.726;2022-10-17T12:04:16;40.10;45.00
13052;DHT22;6592;47.484;9.726;2022-10-17T12:06:58;40.50;45.80
13052;DHT22;6592;47.484;9.726;2022-10-17T12:09:37;41.00;45.10
13052;DHT22;6592;47.484;9.726;2022-10-17T12:12:07;41.10;44.90
13052;DHT22;6592;47.484;9.726;2022-10-17T12:14:41;41.00;44.70
13052;DHT22;6592;47.484;9.726;2022-10-17T12:17:27;41.50;44.80
13052;DHT22;6592;47.484;9.726;2022-10-17T12:20:24;41.60;43.80
13052;DHT22;6592;47.484;9.726;2022-10-17T12:23:03;41.60;44.70
13052;DHT22;6592;47.484;9.726;2022-10-17T12:25:33;41.90;44.00
13052;DHT22;6592;47.484;9.726;2022-10-17T12:28:15;42.00;44.20
13052;DHT22;6592;47.484;9.726;2022-10-17T12:30:56;41.70;43.80
13052;DHT22;6592;47.484;9.726;2022-10-17T12:33:31;41.60;42.70
13052;DHT22;6592;47.484;9.726;2022-10-17T12:45:51;40.00;44.40
13052;DHT22;6592;47.484;9.726;2022-10-17T12:54:59;39.10;46.60
13052;DHT22;6592;47.484;9.726;2022-10-17T12:57:53;38.70;46.40
13052;DHT22;6592;47.484;9.726;2022-10-17T13:00:26;38.10;46.90
13052;DHT22;6592;47.484;9.726;2022-10-17T13:03:00;37.70;48.10
13052;DHT22;6592;47.484;9.726;2022-10-17T13:05:33;37.90;48.70
13052;DHT22;6592;47.484;9.726;2022-10-17T13:08:03;37.80;48.30
13052;DHT22;6592;47.484;9.726;2022-10-17T13:10:36;38.00;48.20
13052;DHT22;6592;47.484;9.726;2022-10-17T13:13:14;37.50;48.30
13052;DHT22;6592;47.484;9.726;2022-10-17T13:15:47;37.40;48.50
13052;DHT22;6592;47.484;9.726;2022-10-17T13:18:20;37.50;48.80
13052;DHT22;6592;47.484;9.726;2022-10-17T13:20:57;37.80;47.90
13052;DHT22;6592;47.484;9.726;2022-10-17T13:23:30;37.30;48.80
13052;DHT22;6592;47.484;9.726;2022-10-17T13:26:04;37.60;48.60
13052;DHT22;6592;47.484;9.726;2022-10-17T13:28:33;37.80;48.70
13052;DHT22;6592;47.484;9.726;2022-10-17T13:31:05;38.30;48.10
13052;DHT22;6592;47.484;9.726;2022-10-17T13:33:36;38.50;46.80
13052;DHT22;6592;47.484;9.726;2022-10-17T13:36:07;38.10;48.20
13052;DHT22;6592;47.484;9.726;2022-10-17T13:38:41;37.90;48.10
13052;DHT22;6592;47.484;9.726;2022-10-17T13:41:13;37.80;48.30
13052;DHT22;6592;47.484;9.726;2022-10-17T13:44:03;37.20;48.80
13052;DHT22;6592;47.484;9.726;2022-10-17T13:46:34;37.10;49.40
13052;DHT22;6592;47.484;9.726;2022-10-17T13:49:25;37.00;49.60
13052;DHT22;6592;47.484;9.726;2022-10-17T13:51:57;36.50;50.00
13052;DHT22;6592;47.484;9.726;2022-10-17T13:54:35;36.50;51.00
13052;DHT22;6592;47.484;9.726;2022-10-17T13:57:15;36.70;50.50
13052;DHT22;6592;47.484;9.726;2022-10-17T13:59:45;36.30;50.50
13052;DHT22;6592;47.484;9.726;2022-10-17T14:02:17;36.30;51.00
13052;DHT22;6592;47.484;9.726;2022-10-17T14:04:46;36.30;50.80
13052;DHT22;6592;47.484;9.726;2022-10-17T14:07:37;35.90;51.00
13052;DHT22;6592;47.484;9.726;2022-10-17T14:10:30;35.60;52.20
13052;DHT22;6592;47.484;9.726;2022-10-17T14:13:01;35.70;52.00
13052;DHT22;6592;47.484;9.726;2022-10-17T14:15:33;35.60;51.90
13052;DHT22;6592;47.484;9.726;2022-10-17T14:18:03;35.30;52.00
13052;DHT22;6592;47.484;9.726;2022-10-17T14:20:34;35.10;52.50
13052;DHT22;6592;47.484;9.726;2022-10-17T14:23:32;34.90;52.60
13052;DHT22;6592;47.484;9.726;2022-10-17T14:26:11;34.70;53.40
13052;DHT22;6592;47.484;9.726;2022-10-17T14:28:44;34.50;54.00
13052;DHT22;6592;47.484;9.726;2022-10-17T14:31:20;34.30;54.40
13052;DHT22;6592;47.484;9.726;2022-10-17T14:33:52;34.30;54.70
13052;DHT22;6592;47.484;9.726;2022-10-17T14:36:33;34.10;54.70
13052;DHT22;6592;47.484;9.726;2022-10-17T14:39:04;34.20;54.80
13052;DHT22;6592;47.484;9.726;2022-10-17T14:41:42;34.10;55.20
13052;DHT22;6592;47.484;9.726;2022-10-17T14:44:26;34.10;55.30
13052;DHT22;6592;47.484;9.726;2022-10-17T14:46:58;34.20;54.40
13052;DHT22;6592;47.484;9.726;2022-10-17T14:49:49;34.30;54.50
13052;DHT22;6592;47.484;9.726;2022-10-17T14:52:29;34.20;54.00
13052;DHT22;6592;47.484;9.726;2022-10-17T14:54:59;34.40;53.90
13052;DHT22;6592;47.484;9.726;2022-10-17T14:57:41;34.50;54.00
13052;DHT22;6592;47.484;9.726;2022-10-17T15:00:14;34.40;54.20
13052;DHT22;6592;47.484;9.726;2022-10-17T15:02:44;34.10;54.40
13052;DHT22;6592;47.484;9.726;2022-10-17T15:05:14;33.70;54.90
13052;DHT22;6592;47.484;9.726;2022-10-17T15:07:42;33.20;55.30
13052;DHT22;6592;47.484;9.726;2022-10-17T15:10:30;32.50;56.10
13052;DHT22;6592;47.484;9.726;2022-10-17T15:12:59;32.30;57.20
13052;DHT22;6592;47.484;9.726;2022-10-17T15:15:48;32.10;58.00
13052;DHT22;6592;47.484;9.726;2022-10-17T15:18:18;32.00;57.80
13052;DHT22;6592;47.484;9.726;2022-10-17T15:20:46;31.90;58.00
13052;DHT22;6592;47.484;9.726;2022-10-17T15:23:30;31.70;58.30
13052;DHT22;6592;47.484;9.726;2022-10-17T15:26:00;31.40;58.90
13052;DHT22;6592;47.484;9.726;2022-10-17T15:28:28;31.20;59.10
13052;DHT22;6592;47.484;9.726;2022-10-17T15:30:58;31.00;59.70
13052;DHT22;6592;47.484;9.726;2022-10-17T15:33:27;30.70;60.20
13052;DHT22;6592;47.484;9.726;2022-10-17T15:35:55;30.50;60.50
13052;DHT22;6592;47.484;9.726;2022-10-17T15:38:29;30.50;60.50
13052;DHT22;6592;47.484;9.726;2022-10-17T15:40:58;30.50;60.60
13052;DHT22;6592;47.484;9.726;2022-10-17T15:43:27;30.50;60.80
13052;DHT22;6592;47.484;9.726;2022-10-17T15:45:55;30.50;61.00
13052;DHT22;6592;47.484;9.726;2022-10-17T15:48:28;30.40;61.00
13052;DHT22;6592;47.484;9.726;2022-10-17T15:50:57;30.30;61.20
13052;DHT22;6592;47.484;9.726;2022-10-17T15:53:26;30.20;61.40
13052;DHT22;6592;47.484;9.726;2022-10-17T15:55:55;30.00;61.80
13052;DHT22;6592;47.484;9.726;2022-10-17T15:58:23;29.70;62.20
13052;DHT22;6592;47.484;9.726;2022-10-17T16:00:54;29.20;63.70
13052;DHT22;6592;47.484;9.726;2022-10-17T16:03:22;28.80;63.40
13052;DHT22;6592;47.484;9.726;2022-10-17T16:05:52;28.50;64.00
13052;DHT22;6592;47.484;9.726;2022-10-17T16:08:20;28.00;65.30
13052;DHT22;6592;47.484;9.726;2022-10-17T16:10:49;27.40;66.90
13052;DHT22;6592;47.484;9.726;2022-10-17T16:13:20;26.70;69.20
13052;DHT22;6592;47.484;9.726;2022-10-17T16:15:49;26.30;70.40
13052;DHT22;6592;47.484;9.726;2022-10-17T16:18:18;25.70;72.30
13052;DHT22;6592;47.484;9.726;2022-10-17T16:20:47;25.20;73.60
13052;DHT22;6592;47.484;9.726;2022-10-17T16:23:17;24.90;75.00
13052;DHT22;6592;47.484;9.726;2022-10-17T16:25:45;24.60;76.10
13052;DHT22;6592;47.484;9.726;2022-10-17T16:28:14;24.40;77.40
13052;DHT22;6592;47.484;9.726;2022-10-17T16:30:42;24.10;78.40
13052;DHT22;6592;47.484;9.726;2022-10-17T16:33:12;23.80;79.80
13052;DHT22;6592;47.484;9.726;2022-10-17T16:35:40;23.50;81.20
13052;DHT22;6592;47.484;9.726;2022-10-17T16:38:09;23.20;83.20